Terminal Aerodrome Forecast
Issued by NWS Sterling, VA

Current Version | Previous Version | Graphics & Text | Print | Product List | Glossary On
Versions: 1 2 3 4 5 6 7 8 9 10 11 12 13 14 15 16 17 18 19 20 21 22 23 24 25 26
922
FTUS41 KLWX 252328
TAFIAD
TAF
KIAD 252328Z 2600/2706 12004KT P6SM OVC050
     FM260400 11005KT P6SM OVC045
     FM260700 09007KT P6SM OVC015
     FM261500 11008KT 3SM -DZ SCT005 OVC008
     FM262100 11008KT 3SM -DZ OVC015
     FM270000 11008KT 3SM -RADZ BKN008
     FM270500 15006KT 3SM -RADZ OVC010=

USA.gov is the U.S. government's official web portal to all federal, state and local government web resources and services.